sensor_id;sensor_type;location;lat;lon;timestamp;pressure;altitude;pressure_sealevel;temperature;humidity
78932;BME280;68331;53.362;55.932;2023-05-15T00:00:14;100257.81;;;7.98;72.72
78932;BME280;68331;53.362;55.932;2023-05-15T00:02:43;100258.63;;;8.00;72.83
78932;BME280;68331;53.362;55.932;2023-05-15T00:05:10;100258.66;;;7.97;73.00
78932;BME280;68331;53.362;55.932;2023-05-15T00:07:40;100264.78;;;7.97;73.15
78932;BME280;68331;53.362;55.932;2023-05-15T00:10:07;100263.88;;;8.00;73.17
78932;BME280;68331;53.362;55.932;2023-05-15T00:12:33;100263.06;;;7.96;73.19
78932;BME280;68331;53.362;55.932;2023-05-15T00:14:59;100264.81;;;7.96;73.35
78932;BME280;68331;53.362;55.932;2023-05-15T00:17:25;100263.97;;;7.93;73.64
78932;BME280;68331;53.362;55.932;2023-05-15T00:19:51;100257.84;;;7.93;73.63
78932;BME280;68331;53.362;55.932;2023-05-15T00:22:25;100253.50;;;7.90;73.82
78932;BME280;68331;53.362;55.932;2023-05-15T00:24:51;100258.75;;;7.92;73.63
78932;BME280;68331;53.362;55.932;2023-05-15T00:27:17;100258.72;;;7.93;73.84
78932;BME280;68331;53.362;55.932;2023-05-15T00:29:43;100241.28;;;7.88;73.57
78932;BME280;68331;53.362;55.932;2023-05-15T00:32:09;100260.47;;;7.95;73.70
78932;BME280;68331;53.362;55.932;2023-05-15T00:34:35;100257.84;;;7.93;73.89
78932;BME280;68331;53.362;55.932;2023-05-15T00:37:02;100264.00;;;7.92;73.78
78932;BME280;68331;53.362;55.932;2023-05-15T00:39:30;100253.56;;;7.86;73.62
78932;BME280;68331;53.362;55.932;2023-05-15T00:41:57;100266.59;;;7.93;73.55
78932;BME280;68331;53.362;55.932;2023-05-15T00:44:25;100263.91;;;7.98;73.70
78932;BME280;68331;53.362;55.932;2023-05-15T00:46:55;100264.78;;;7.99;73.92
78932;BME280;68331;53.362;55.932;2023-05-15T00:49:22;100272.59;;;8.03;73.88
78932;BME280;68331;53.362;55.932;2023-05-15T00:51:49;100278.66;;;8.07;73.90
78932;BME280;68331;53.362;55.932;2023-05-15T00:54:15;100279.56;;;8.07;73.67
78932;BME280;68331;53.362;55.932;2023-05-15T00:56:42;100278.63;;;8.10;73.68
78932;BME280;68331;53.362;55.932;2023-05-15T00:59:10;100280.28;;;8.15;73.29
78932;BME280;68331;53.362;55.932;2023-05-15T01:01:38;100274.94;;;8.22;73.32
78932;BME280;68331;53.362;55.932;2023-05-15T01:04:04;100272.16;;;8.31;72.86
78932;BME280;68331;53.362;55.932;2023-05-15T01:06:30;100266.81;;;8.40;72.31
78932;BME280;68331;53.362;55.932;2023-05-15T01:08:59;100269.38;;;8.43;72.27
78932;BME280;68331;53.362;55.932;2023-05-15T01:11:29;100278.84;;;8.53;71.90
78932;BME280;68331;53.362;55.932;2023-05-15T01:14:05;100278.75;;;8.58;71.44
78932;BME280;68331;53.362;55.932;2023-05-15T01:16:32;100277.84;;;8.62;71.57
78932;BME280;68331;53.362;55.932;2023-05-15T01:19:01;100275.97;;;8.69;71.49
78932;BME280;68331;53.362;55.932;2023-05-15T01:21:37;100275.88;;;8.75;71.11
78932;BME280;68331;53.362;55.932;2023-05-15T01:32:01;100274.53;;;9.00;70.09
78932;BME280;68331;53.362;55.932;2023-05-15T01:34:35;100276.19;;;9.04;70.02
78932;BME280;68331;53.362;55.932;2023-05-15T01:37:05;100283.97;;;9.11;69.92
78932;BME280;68331;53.362;55.932;2023-05-15T01:39:34;100283.06;;;9.12;69.52
78932;BME280;68331;53.362;55.932;2023-05-15T01:42:08;100279.31;;;9.25;69.34
78932;BME280;68331;53.362;55.932;2023-05-15T01:44:37;100273.13;;;9.27;69.31
78932;BME280;68331;53.362;55.932;2023-05-15T01:47:09;100289.66;;;9.34;68.96
78932;BME280;68331;53.362;55.932;2023-05-15T01:49:38;100282.66;;;9.33;68.88
78932;BME280;68331;53.362;55.932;2023-05-15T01:52:12;100286.97;;;9.37;68.93
78932;BME280;68331;53.362;55.932;2023-05-15T01:54:41;100294.75;;;9.45;68.78
78932;BME280;68331;53.362;55.932;2023-05-15T01:57:08;100294.63;;;9.51;68.21
78932;BME280;68331;53.362;55.932;2023-05-15T01:59:37;100286.47;;;9.62;67.79
78932;BME280;68331;53.362;55.932;2023-05-15T02:02:05;100285.13;;;9.84;67.18
78932;BME280;68331;53.362;55.932;2023-05-15T02:04:33;100291.66;;;10.07;66.52
78932;BME280;68331;53.362;55.932;2023-05-15T02:07:00;100292.09;;;10.25;66.15
78932;BME280;68331;53.362;55.932;2023-05-15T02:09:28;100290.78;;;10.45;65.69
78932;BME280;68331;53.362;55.932;2023-05-15T02:11:55;100295.88;;;10.53;65.29
78932;BME280;68331;53.362;55.932;2023-05-15T02:14:23;100299.13;;;10.64;64.73
78932;BME280;68331;53.362;55.932;2023-05-15T02:16:50;100299.75;;;10.74;64.38
78932;BME280;68331;53.362;55.932;2023-05-15T02:19:17;100296.03;;;10.81;63.67
78932;BME280;68331;53.362;55.932;2023-05-15T02:21:43;100313.22;;;10.97;63.59
78932;BME280;68331;53.362;55.932;2023-05-15T02:24:10;100308.47;;;11.10;63.55
78932;BME280;68331;53.362;55.932;2023-05-15T02:27:04;100310.44;;;11.36;63.07
78932;BME280;68331;53.362;55.932;2023-05-15T02:35:42;100300.78;;;15.51;50.22
78932;BME280;68331;53.362;55.932;2023-05-15T02:37:52;100299.75;;;14.52;52.92
78932;BME280;68331;53.362;55.932;2023-05-15T02:40:19;100306.28;;;13.74;54.75
78932;BME280;68331;53.362;55.932;2023-05-15T02:42:49;100316.41;;;13.13;56.64
78932;BME280;68331;53.362;55.932;2023-05-15T02:45:18;100316.88;;;12.72;57.15
78932;BME280;68331;53.362;55.932;2023-05-15T02:47:45;100317.25;;;12.62;57.17
78932;BME280;68331;53.362;55.932;2023-05-15T02:50:11;100325.56;;;12.77;57.31
78932;BME280;68331;53.362;55.932;2023-05-15T02:52:37;100330.44;;;12.90;57.19
78932;BME280;68331;53.362;55.932;2023-05-15T02:55:03;100327.84;;;13.40;56.89
78932;BME280;68331;53.362;55.932;2023-05-15T02:57:30;100330.66;;;13.60;56.71
78932;BME280;68331;53.362;55.932;2023-05-15T02:59:56;100327.16;;;13.83;56.07
78932;BME280;68331;53.362;55.932;2023-05-15T03:02:22;100331.72;;;13.80;56.87
78932;BME280;68331;53.362;55.932;2023-05-15T03:04:48;100328.47;;;13.71;57.35
78932;BME280;68331;53.362;55.932;2023-05-15T03:07:15;100331.41;;;13.64;57.55
78932;BME280;68331;53.362;55.932;2023-05-15T03:09:41;100338.31;;;13.68;57.44
78932;BME280;68331;53.362;55.932;2023-05-15T03:12:09;100326.50;;;14.24;55.94
78932;BME280;68331;53.362;55.932;2023-05-15T03:14:35;100320.31;;;14.45;54.65
78932;BME280;68331;53.362;55.932;2023-05-15T03:17:02;100327.66;;;14.38;55.55
78932;BME280;68331;53.362;55.932;2023-05-15T03:19:28;100320.63;;;14.37;55.79
78932;BME280;68331;53.362;55.932;2023-05-15T03:21:54;100328.56;;;14.61;54.53
78932;BME280;68331;53.362;55.932;2023-05-15T03:24:20;100330.72;;;14.51;54.94
78932;BME280;68331;53.362;55.932;2023-05-15T03:26:46;100347.66;;;14.25;55.29
78932;BME280;68331;53.362;55.932;2023-05-15T03:29:13;100339.59;;;14.05;55.54
78932;BME280;68331;53.362;55.932;2023-05-15T03:31:39;100344.28;;;13.98;56.48
78932;BME280;68331;53.362;55.932;2023-05-15T03:34:05;100340.81;;;13.96;56.48
78932;BME280;68331;53.362;55.932;2023-05-15T03:36:31;100336.38;;;13.96;56.16
78932;BME280;68331;53.362;55.932;2023-05-15T03:38:57;100335.50;;;13.96;55.53
78932;BME280;68331;53.362;55.932;2023-05-15T03:41:25;100334.22;;;14.06;54.93
78932;BME280;68331;53.362;55.932;2023-05-15T03:43:53;100332.09;;;14.16;54.85
78932;BME280;68331;53.362;55.932;2023-05-15T03:46:18;100332.47;;;14.29;54.41
78932;BME280;68331;53.362;55.932;2023-05-15T03:48:45;100335.50;;;14.41;53.63
78932;BME280;68331;53.362;55.932;2023-05-15T03:51:11;100323.19;;;14.62;53.18
78932;BME280;68331;53.362;55.932;2023-05-15T03:53:37;100337.94;;;14.92;52.00
78932;BME280;68331;53.362;55.932;2023-05-15T03:56:03;100327.84;;;15.00;51.82
78932;BME280;68331;53.362;55.932;2023-05-15T03:58:30;100332.03;;;15.05;51.95
78932;BME280;68331;53.362;55.932;2023-05-15T04:00:58;100335.56;;;15.26;51.42
78932;BME280;68331;53.362;55.932;2023-05-15T04:03:24;100335.94;;;15.38;50.96
78932;BME280;68331;53.362;55.932;2023-05-15T04:05:50;100341.84;;;15.44;51.50
78932;BME280;68331;53.362;55.932;2023-05-15T04:08:16;100346.13;;;15.48;51.43
78932;BME280;68331;53.362;55.932;2023-05-15T04:10:42;100341.00;;;15.44;51.65
78932;BME280;68331;53.362;55.932;2023-05-15T04:13:08;100346.41;;;15.42;52.48
78932;BME280;68331;53.362;55.932;2023-05-15T04:15:34;100352.81;;;15.57;52.03
78932;BME280;68331;53.362;55.932;2023-05-15T04:18:00;100341.19;;;16.37;49.63
78932;BME280;68331;53.362;55.932;2023-05-15T04:20:26;100341.88;;;16.78;48.69
78932;BME280;68331;53.362;55.932;2023-05-15T04:22:52;100343.47;;;16.82;48.78
78932;BME280;68331;53.362;55.932;2023-05-15T04:25:18;100334.47;;;16.66;48.97
78932;BME280;68331;53.362;55.932;2023-05-15T04:27:46;100326.38;;;16.50;49.02
78932;BME280;68331;53.362;55.932;2023-05-15T04:30:12;100341.63;;;16.46;49.01
78932;BME280;68331;53.362;55.932;2023-05-15T04:32:38;100337.38;;;16.42;48.67
78932;BME280;68331;53.362;55.932;2023-05-15T04:35:05;100334.09;;;16.37;48.84
78932;BME280;68331;53.362;55.932;2023-05-15T04:37:35;100331.56;;;16.34;49.04
78932;BME280;68331;53.362;55.932;2023-05-15T04:40:01;100334.34;;;16.50;49.02
78932;BME280;68331;53.362;55.932;2023-05-15T04:42:28;100330.50;;;16.56;48.77
78932;BME280;68331;53.362;55.932;2023-05-15T04:44:54;100328.34;;;16.64;48.02
78932;BME280;68331;53.362;55.932;2023-05-15T04:47:21;100327.31;;;16.85;47.68
78932;BME280;68331;53.362;55.932;2023-05-15T04:49:47;100339.94;;;16.99;47.07
78932;BME280;68331;53.362;55.932;2023-05-15T04:52:14;100332.19;;;16.94;46.89
78932;BME280;68331;53.362;55.932;2023-05-15T04:54:40;100335.63;;;16.96;46.53
78932;BME280;68331;53.362;55.932;2023-05-15T04:57:07;100335.09;;;17.07;47.02
78932;BME280;68331;53.362;55.932;2023-05-15T04:59:33;100344.91;;;17.24;46.76
78932;BME280;68331;53.362;55.932;2023-05-15T05:01:59;100340.66;;;17.71;46.28
78932;BME280;68331;53.362;55.932;2023-05-15T05:04:25;100338.38;;;17.80;45.52
78932;BME280;68331;53.362;55.932;2023-05-15T05:06:51;100341.94;;;17.81;44.52
78932;BME280;68331;53.362;55.932;2023-05-15T05:09:20;100330.88;;;18.04;43.27
78932;BME280;68331;53.362;55.932;2023-05-15T05:11:46;100334.06;;;18.74;42.27
78932;BME280;68331;53.362;55.932;2023-05-15T05:14:13;100326.78;;;19.22;40.95
78932;BME280;68331;53.362;55.932;2023-05-15T05:16:40;100337.19;;;19.27;39.98
78932;BME280;68331;53.362;55.932;2023-05-15T05:19:07;100343.97;;;18.72;41.36
78932;BME280;68331;53.362;55.932;2023-05-15T05:21:33;100336.47;;;18.47;41.72
78932;BME280;68331;53.362;55.932;2023-05-15T05:23:58;100341.06;;;18.45;41.70
78932;BME280;68331;53.362;55.932;2023-05-15T05:26:25;100339.84;;;18.51;41.26
78932;BME280;68331;53.362;55.932;2023-05-15T05:28:51;100344.78;;;18.74;39.71
78932;BME280;68331;53.362;55.932;2023-05-15T05:31:17;100350.16;;;18.89;39.96
78932;BME280;68331;53.362;55.932;2023-05-15T05:33:43;100349.69;;;19.12;39.44
78932;BME280;68331;53.362;55.932;2023-05-15T05:36:09;100351.50;;;19.56;38.15
78932;BME280;68331;53.362;55.932;2023-05-15T05:38:35;100345.84;;;20.32;37.06
78932;BME280;68331;53.362;55.932;2023-05-15T05:41:01;100341.97;;;22.21;33.62
78932;BME280;68331;53.362;55.932;2023-05-15T05:43:28;100347.56;;;22.55;32.35
78932;BME280;68331;53.362;55.932;2023-05-15T05:45:54;100336.88;;;23.14;30.41
78932;BME280;68331;53.362;55.932;2023-05-15T05:48:20;100346.69;;;23.73;29.09
78932;BME280;68331;53.362;55.932;2023-05-15T05:50:46;100342.09;;;26.21;25.53
78932;BME280;68331;53.362;55.932;2023-05-15T05:53:12;100341.50;;;28.40;22.50
78932;BME280;68331;53.362;55.932;2023-05-15T05:55:38;100339.19;;;30.39;20.02
78932;BME280;68331;53.362;55.932;2023-05-15T05:58:04;100343.75;;;31.79;17.95
78932;BME280;68331;53.362;55.932;2023-05-15T06:00:30;100331.44;;;33.39;16.73
78932;BME280;68331;53.362;55.932;2023-05-15T06:02:58;100326.22;;;34.41;15.32
78932;BME280;68331;53.362;55.932;2023-05-15T06:05:24;100326.19;;;35.63;14.68
78932;BME280;68331;53.362;55.932;2023-05-15T06:07:52;100326.28;;;36.11;13.63
78932;BME280;68331;53.362;55.932;2023-05-15T06:10:18;100328.28;;;35.33;13.60
78932;BME280;68331;53.362;55.932;2023-05-15T06:12:45;100339.34;;;35.68;13.63
78932;BME280;68331;53.362;55.932;2023-05-15T06:15:12;100331.75;;;36.04;13.04
78932;BME280;68331;53.362;55.932;2023-05-15T06:17:38;100336.00;;;36.07;12.87
78932;BME280;68331;53.362;55.932;2023-05-15T06:20:04;100333.66;;;36.04;12.87
78932;BME280;68331;53.362;55.932;2023-05-15T06:22:37;100324.09;;;36.00;13.05
78932;BME280;68331;53.362;55.932;2023-05-15T06:25:04;100330.34;;;35.80;12.52
78932;BME280;68331;53.362;55.932;2023-05-15T06:27:32;100324.25;;;35.57;12.76
78932;BME280;68331;53.362;55.932;2023-05-15T06:29:58;100331.34;;;36.07;12.17
78932;BME280;68331;53.362;55.932;2023-05-15T06:32:24;100326.19;;;35.98;12.60
78932;BME280;68331;53.362;55.932;2023-05-15T06:34:50;100318.44;;;35.73;12.11
78932;BME280;68331;53.362;55.932;2023-05-15T06:37:16;100321.09;;;35.95;12.03
78932;BME280;68331;53.362;55.932;2023-05-15T06:39:43;100324.66;;;36.23;12.20
78932;BME280;68331;53.362;55.932;2023-05-15T06:42:09;100322.41;;;36.47;11.81
78932;BME280;68331;53.362;55.932;2023-05-15T06:44:35;100324.88;;;36.76;11.87
78932;BME280;68331;53.362;55.932;2023-05-15T06:47:01;100319.53;;;36.55;11.33
78932;BME280;68331;53.362;55.932;2023-05-15T06:49:27;100325.34;;;35.97;11.93
78932;BME280;68331;53.362;55.932;2023-05-15T06:51:53;100318.41;;;35.67;12.39
78932;BME280;68331;53.362;55.932;2023-05-15T06:54:19;100313.50;;;35.34;13.12
78932;BME280;68331;53.362;55.932;2023-05-15T06:56:45;100310.69;;;34.84;12.81
78932;BME280;68331;53.362;55.932;2023-05-15T06:59:12;100328.13;;;32.51;14.39
78932;BME280;68331;53.362;55.932;2023-05-15T07:01:38;100335.81;;;29.76;16.34
78932;BME280;68331;53.362;55.932;2023-05-15T07:04:04;100340.47;;;28.13;17.52
78932;BME280;68331;53.362;55.932;2023-05-15T07:06:30;100325.41;;;26.96;20.19
78932;BME280;68331;53.362;55.932;2023-05-15T07:08:59;100326.84;;;26.20;20.90
78932;BME280;68331;53.362;55.932;2023-05-15T07:11:25;100322.81;;;25.33;21.84
78932;BME280;68331;53.362;55.932;2023-05-15T07:13:52;100319.38;;;24.77;22.20
78932;BME280;68331;53.362;55.932;2023-05-15T07:16:18;100316.63;;;24.34;22.98
78932;BME280;68331;53.362;55.932;2023-05-15T07:18:44;100328.69;;;24.07;22.31
78932;BME280;68331;53.362;55.932;2023-05-15T07:21:10;100314.84;;;24.12;22.87
78932;BME280;68331;53.362;55.932;2023-05-15T07:23:36;100315.56;;;24.25;22.49
78932;BME280;68331;53.362;55.932;2023-05-15T07:26:02;100320.94;;;24.36;22.09
78932;BME280;68331;53.362;55.932;2023-05-15T07:28:27;100313.72;;;24.26;22.48
78932;BME280;68331;53.362;55.932;2023-05-15T07:30:53;100327.56;;;23.65;23.48
78932;BME280;68331;53.362;55.932;2023-05-15T07:33:19;100327.91;;;23.49;23.62
78932;BME280;68331;53.362;55.932;2023-05-15T07:35:45;100329.66;;;23.61;23.57
78932;BME280;68331;53.362;55.932;2023-05-15T07:38:11;100323.56;;;23.82;22.83
78932;BME280;68331;53.362;55.932;2023-05-15T07:40:37;100321.34;;;23.76;22.49
78932;BME280;68331;53.362;55.932;2023-05-15T07:43:03;100324.28;;;23.73;22.56
78932;BME280;68331;53.362;55.932;2023-05-15T07:45:29;100329.69;;;23.73;24.35
78932;BME280;68331;53.362;55.932;2023-05-15T07:47:55;100318.03;;;23.83;24.36
78932;BME280;68331;53.362;55.932;2023-05-15T07:50:23;100320.25;;;24.01;24.48
78932;BME280;68331;53.362;55.932;2023-05-15T07:52:49;100320.75;;;23.95;23.54
78932;BME280;68331;53.362;55.932;2023-05-15T07:55:15;100318.41;;;24.01;23.48
78932;BME280;68331;53.362;55.932;2023-05-15T07:57:40;100306.53;;;24.04;23.65
78932;BME280;68331;53.362;55.932;2023-05-15T08:00:07;100310.81;;;24.06;23.62
78932;BME280;68331;53.362;55.932;2023-05-15T08:02:39;100307.63;;;24.12;23.83
78932;BME280;68331;53.362;55.932;2023-05-15T08:05:05;100309.44;;;24.23;23.96
78932;BME280;68331;53.362;55.932;2023-05-15T08:07:31;100308.69;;;24.21;23.83
78932;BME280;68331;53.362;55.932;2023-05-15T08:10:00;100302.19;;;24.35;23.75
78932;BME280;68331;53.362;55.932;2023-05-15T08:12:26;100303.94;;;24.13;23.79
78932;BME280;68331;53.362;55.932;2023-05-15T08:14:53;100307.75;;;24.11;24.10
78932;BME280;68331;53.362;55.932;2023-05-15T08:17:20;100300.78;;;23.97;24.10
78932;BME280;68331;53.362;55.932;2023-05-15T08:19:47;100303.97;;;23.91;23.58
78932;BME280;68331;53.362;55.932;2023-05-15T08:22:13;100296.25;;;23.98;23.37
78932;BME280;68331;53.362;55.932;2023-05-15T08:24:39;100292.75;;;24.29;22.86
78932;BME280;68331;53.362;55.932;2023-05-15T08:27:06;100279.00;;;24.44;23.34
78932;BME280;68331;53.362;55.932;2023-05-15T08:29:34;100276.97;;;24.68;23.64
78932;BME280;68331;53.362;55.932;2023-05-15T08:32:00;100281.97;;;24.73;23.11
78932;BME280;68331;53.362;55.932;2023-05-15T08:34:27;100279.06;;;24.65;23.08
78932;BME280;68331;53.362;55.932;2023-05-15T08:36:53;100280.75;;;24.45;23.21
78932;BME280;68331;53.362;55.932;2023-05-15T08:39:19;100270.13;;;24.09;23.46
78932;BME280;68331;53.362;55.932;2023-05-15T08:41:55;100279.13;;;24.31;23.89
78932;BME280;68331;53.362;55.932;2023-05-15T08:44:23;100266.75;;;24.51;22.79
78932;BME280;68331;53.362;55.932;2023-05-15T08:46:51;100271.75;;;24.55;21.90
78932;BME280;68331;53.362;55.932;2023-05-15T08:49:46;100271.34;;;24.60;22.34
78932;BME280;68331;53.362;55.932;2023-05-15T08:52:16;100267.84;;;24.48;21.90
78932;BME280;68331;53.362;55.932;2023-05-15T08:54:42;100278.56;;;24.05;22.16
78932;BME280;68331;53.362;55.932;2023-05-15T08:57:08;100273.91;;;23.39;23.28
78932;BME280;68331;53.362;55.932;2023-05-15T08:59:36;100275.19;;;22.87;23.95
78932;BME280;68331;53.362;55.932;2023-05-15T09:02:02;100271.78;;;22.85;23.96
78932;BME280;68331;53.362;55.932;2023-05-15T09:04:28;100267.53;;;23.40;23.11
78932;BME280;68331;53.362;55.932;2023-05-15T09:06:54;100272.56;;;23.34;23.25
78932;BME280;68331;53.362;55.932;2023-05-15T09:09:21;100267.09;;;22.76;24.57
78932;BME280;68331;53.362;55.932;2023-05-15T09:11:49;100258.81;;;22.90;24.43
78932;BME280;68331;53.362;55.932;2023-05-15T09:14:15;100253.59;;;23.47;23.53
78932;BME280;68331;53.362;55.932;2023-05-15T09:16:41;100253.50;;;23.93;23.14
78932;BME280;68331;53.362;55.932;2023-05-15T09:19:08;100248.56;;;24.09;22.67
78932;BME280;68331;53.362;55.932;2023-05-15T09:21:35;100241.97;;;24.34;22.26
78932;BME280;68331;53.362;55.932;2023-05-15T09:24:20;100241.31;;;24.65;22.63
78932;BME280;68331;53.362;55.932;2023-05-15T09:27:05;100240.22;;;24.56;21.69
78932;BME280;68331;53.362;55.932;2023-05-15T09:29:32;100243.19;;;24.53;22.47
78932;BME280;68331;53.362;55.932;2023-05-15T09:32:06;100236.03;;;24.63;22.66
78932;BME280;68331;53.362;55.932;2023-05-15T09:34:36;100237.75;;;24.64;22.23
78932;BME280;68331;53.362;55.932;2023-05-15T09:37:07;100241.22;;;24.76;22.23
78932;BME280;68331;53.362;55.932;2023-05-15T09:39:39;100243.94;;;24.76;22.09
78932;BME280;68331;53.362;55.932;2023-05-15T09:44:33;100221.31;;;25.09;21.42
78932;BME280;68331;53.362;55.932;2023-05-15T09:47:00;100223.22;;;24.97;21.25
78932;BME280;68331;53.362;55.932;2023-05-15T09:49:27;100217.31;;;24.82;21.28
78932;BME280;68331;53.362;55.932;2023-05-15T09:51:57;100222.88;;;24.91;21.57
78932;BME280;68331;53.362;55.932;2023-05-15T09:54:24;100221.69;;;24.63;21.68
78932;BME280;68331;53.362;55.932;2023-05-15T09:56:52;100220.47;;;24.67;21.72
78932;BME280;68331;53.362;55.932;2023-05-15T09:59:19;100217.94;;;24.75;21.37
78932;BME280;68331;53.362;55.932;2023-05-15T10:01:50;100211.28;;;24.79;21.00
78932;BME280;68331;53.362;55.932;2023-05-15T10:04:17;100208.19;;;25.04;20.74
78932;BME280;68331;53.362;55.932;2023-05-15T10:06:47;100205.06;;;24.99;21.52
78932;BME280;68331;53.362;55.932;2023-05-15T10:09:13;100212.16;;;24.79;21.44
78932;BME280;68331;53.362;55.932;2023-05-15T10:11:41;100206.41;;;24.73;21.05
78932;BME280;68331;53.362;55.932;2023-05-15T10:14:10;100194.78;;;24.93;20.63
78932;BME280;68331;53.362;55.932;2023-05-15T10:16:39;100198.00;;;25.08;20.06
78932;BME280;68331;53.362;55.932;2023-05-15T10:19:07;100197.59;;;25.34;19.66
78932;BME280;68331;53.362;55.932;2023-05-15T10:21:38;100191.50;;;25.41;19.01
78932;BME280;68331;53.362;55.932;2023-05-15T10:24:05;100193.81;;;25.15;19.36
78932;BME280;68331;53.362;55.932;2023-05-15T10:26:40;100197.47;;;24.93;19.58
78932;BME280;68331;53.362;55.932;2023-05-15T10:29:10;100193.44;;;24.46;20.33
78932;BME280;68331;53.362;55.932;2023-05-15T10:31:36;100183.00;;;24.09;20.85
78932;BME280;68331;53.362;55.932;2023-05-15T10:34:03;100189.78;;;24.35;20.69
78932;BME280;68331;53.362;55.932;2023-05-15T10:36:32;100180.75;;;24.78;20.13
78932;BME280;68331;53.362;55.932;2023-05-15T10:39:01;100176.59;;;25.16;19.52
78932;BME280;68331;53.362;55.932;2023-05-15T10:41:28;100184.00;;;25.45;19.27
78932;BME280;68331;53.362;55.932;2023-05-15T10:43:59;100181.63;;;25.61;19.79
78932;BME280;68331;53.362;55.932;2023-05-15T10:46:26;100180.94;;;25.59;19.80
78932;BME280;68331;53.362;55.932;2023-05-15T10:48:53;100186.22;;;25.40;19.29
78932;BME280;68331;53.362;55.932;2023-05-15T10:51:28;100179.03;;;25.19;19.84
78932;BME280;68331;53.362;55.932;2023-05-15T10:53:55;100192.06;;;24.72;20.97
78932;BME280;68331;53.362;55.932;2023-05-15T10:56:31;100191.72;;;24.12;22.46
78932;BME280;68331;53.362;55.932;2023-05-15T10:59:04;100192.38;;;23.60;23.84
78932;BME280;68331;53.362;55.932;2023-05-15T11:01:33;100188.94;;;23.13;24.88
78932;BME280;68331;53.362;55.932;2023-05-15T11:04:11;100199.72;;;22.78;25.49
78932;BME280;68331;53.362;55.932;2023-05-15T11:06:45;100201.69;;;22.40;25.34
78932;BME280;68331;53.362;55.932;2023-05-15T11:12:06;100198.03;;;21.80;25.54
78932;BME280;68331;53.362;55.932;2023-05-15T11:15:16;100202.19;;;21.48;26.76
78932;BME280;68331;53.362;55.932;2023-05-15T11:17:32;100208.63;;;21.20;27.93
78932;BME280;68331;53.362;55.932;2023-05-15T11:19:59;100208.84;;;21.04;28.74
78932;BME280;68331;53.362;55.932;2023-05-15T11:22:34;100214.84;;;20.95;28.10
78932;BME280;68331;53.362;55.932;2023-05-15T11:25:03;100212.47;;;20.90;29.11
78932;BME280;68331;53.362;55.932;2023-05-15T11:27:40;100208.44;;;20.30;31.09
78932;BME280;68331;53.362;55.932;2023-05-15T11:30:16;100225.88;;;19.96;32.09
78932;BME280;68331;53.362;55.932;2023-05-15T11:35:35;100213.59;;;20.06;31.68
78932;BME280;68331;53.362;55.932;2023-05-15T11:41:30;100207.19;;;20.36;29.41
78932;BME280;68331;53.362;55.932;2023-05-15T11:43:34;100207.94;;;20.65;29.11
78932;BME280;68331;53.362;55.932;2023-05-15T11:46:06;100207.53;;;20.84;27.89
78932;BME280;68331;53.362;55.932;2023-05-15T11:48:43;100209.47;;;20.95;28.03
78932;BME280;68331;53.362;55.932;2023-05-15T11:51:22;100209.03;;;21.01;27.79
78932;BME280;68331;53.362;55.932;2023-05-15T11:53:53;100206.03;;;21.05;29.04
78932;BME280;68331;53.362;55.932;2023-05-15T11:56:22;100212.72;;;21.12;28.87
78932;BME280;68331;53.362;55.932;2023-05-15T11:58:54;100201.53;;;21.31;28.18
78932;BME280;68331;53.362;55.932;2023-05-15T12:01:21;100197.34;;;21.27;28.23
78932;BME280;68331;53.362;55.932;2023-05-15T12:03:48;100206.03;;;21.18;28.55
78932;BME280;68331;53.362;55.932;2023-05-15T12:06:14;100197.88;;;21.32;28.33
78932;BME280;68331;53.362;55.932;2023-05-15T12:08:41;100201.72;;;21.67;28.90
78932;BME280;68331;53.362;55.932;2023-05-15T12:11:07;100195.75;;;22.11;28.57
78932;BME280;68331;53.362;55.932;2023-05-15T12:13:34;100191.16;;;22.37;28.02
78932;BME280;68331;53.362;55.932;2023-05-15T12:16:03;100198.31;;;22.49;27.65
78932;BME280;68331;53.362;55.932;2023-05-15T12:18:32;100199.09;;;22.74;27.63
78932;BME280;68331;53.362;55.932;2023-05-15T12:20:59;100197.38;;;23.08;27.67
78932;BME280;68331;53.362;55.932;2023-05-15T12:23:25;100184.56;;;23.23;26.19
78932;BME280;68331;53.362;55.932;2023-05-15T12:25:57;100187.50;;;23.42;25.55
78932;BME280;68331;53.362;55.932;2023-05-15T12:28:25;100185.75;;;23.41;26.26
78932;BME280;68331;53.362;55.932;2023-05-15T12:30:51;100188.00;;;23.36;26.63
78932;BME280;68331;53.362;55.932;2023-05-15T12:33:18;100184.53;;;23.12;26.87
78932;BME280;68331;53.362;55.932;2023-05-15T12:35:49;100184.47;;;22.89;26.84
78932;BME280;68331;53.362;55.932;2023-05-15T12:38:18;100180.66;;;22.69;26.62
78932;BME280;68331;53.362;55.932;2023-05-15T12:40:46;100184.28;;;22.68;26.93
78932;BME280;68331;53.362;55.932;2023-05-15T12:43:18;100177.06;;;22.58;27.43
78932;BME280;68331;53.362;55.932;2023-05-15T12:45:44;100180.31;;;22.85;26.55
78932;BME280;68331;53.362;55.932;2023-05-15T12:48:14;100179.91;;;23.14;26.51
78932;BME280;68331;53.362;55.932;2023-05-15T12:50:43;100166.06;;;23.41;26.28
78932;BME280;68331;53.362;55.932;2023-05-15T12:53:12;100167.16;;;23.50;25.89
78932;BME280;68331;53.362;55.932;2023-05-15T12:55:38;100173.28;;;23.63;25.79
78932;BME280;68331;53.362;55.932;2023-05-15T12:58:06;100167.66;;;23.55;25.86
78932;BME280;68331;53.362;55.932;2023-05-15T13:00:34;100173.78;;;23.34;25.73
78932;BME280;68331;53.362;55.932;2023-05-15T13:03:01;100169.50;;;23.32;26.08
78932;BME280;68331;53.362;55.932;2023-05-15T13:05:28;100172.56;;;23.05;26.43
78932;BME280;68331;53.362;55.932;2023-05-15T13:08:02;100177.56;;;22.63;27.56